Bonnet Shores, Rhode Island
Current Conditions -  °F | °C
As of 8:53 PM on Saturday 22 Nov 2014 (Local Time) from KUUU Reporting Station
Overcast Overcast  
Wind Chill: 41°   Ceiling: 10000
Heat Index: 46°   Visibility: 10mi
Dew Point: 26°   Wind: 12mph
Humidity: 46%   Direction: 240°WSW
Pressure: 30.15"   Gusts: 22mph
Location:  41.4075°N, 71.4775°W
Report Text: KUUU 230153Z AUTO 24010G19KT 200V290 10SM FEW075 OVC100 08/M03 A3015 RMK AO2 SLP209 T00781033
Loading
Personal Weather Stations






























Interactive Weather Map New forecast layout! Learn more

10-Day Weather Forecast

Advertisements
Track Severe Weather on mobile